sensor_id;sensor_type;location;lat;lon;timestamp;pressure;altitude;pressure_sealevel;temperature
22828;BMP180;11580;52.562;13.418;2022-11-20T00:01:35;100142.00;;;6.90
22828;BMP180;11580;52.562;13.418;2022-11-20T00:04:02;100140.00;;;6.90
22828;BMP180;11580;52.562;13.418;2022-11-20T00:06:30;100121.00;;;6.90
22828;BMP180;11580;52.562;13.418;2022-11-20T00:08:59;100147.00;;;6.90
22828;BMP180;11580;52.562;13.418;2022-11-20T00:11:29;100096.00;;;6.90
22828;BMP180;11580;52.562;13.418;2022-11-20T00:13:59;100141.00;;;6.90
22828;BMP180;11580;52.562;13.418;2022-11-20T00:16:30;100143.00;;;6.90
22828;BMP180;11580;52.562;13.418;2022-11-20T00:18:59;100130.00;;;6.90
22828;BMP180;11580;52.562;13.418;2022-11-20T00:21:28;100141.00;;;6.90
22828;BMP180;11580;52.562;13.418;2022-11-20T00:23:56;100137.00;;;6.80
22828;BMP180;11580;52.562;13.418;2022-11-20T00:26:26;100138.00;;;6.80
22828;BMP180;11580;52.562;13.418;2022-11-20T00:28:56;100143.00;;;6.80
22828;BMP180;11580;52.562;13.418;2022-11-20T00:31:24;100137.00;;;6.80
22828;BMP180;11580;52.562;13.418;2022-11-20T00:33:52;100145.00;;;6.80
22828;BMP180;11580;52.562;13.418;2022-11-20T00:36:22;100143.00;;;6.60
22828;BMP180;11580;52.562;13.418;2022-11-20T00:38:52;100137.00;;;6.80
22828;BMP180;11580;52.562;13.418;2022-11-20T00:41:20;100145.00;;;6.70
22828;BMP180;11580;52.562;13.418;2022-11-20T00:43:47;100150.00;;;6.70
22828;BMP180;11580;52.562;13.418;2022-11-20T00:46:17;100147.00;;;6.70
22828;BMP180;11580;52.562;13.418;2022-11-20T00:48:45;100146.00;;;6.70
22828;BMP180;11580;52.562;13.418;2022-11-20T00:51:15;100138.00;;;6.70
22828;BMP180;11580;52.562;13.418;2022-11-20T00:53:44;100138.00;;;6.70
22828;BMP180;11580;52.562;13.418;2022-11-20T00:56:14;100137.00;;;6.70
22828;BMP180;11580;52.562;13.418;2022-11-20T00:58:44;100136.00;;;6.70
22828;BMP180;11580;52.562;13.418;2022-11-20T01:01:14;100137.00;;;6.70
22828;BMP180;11580;52.562;13.418;2022-11-20T01:03:44;100136.00;;;6.60
22828;BMP180;11580;52.562;13.418;2022-11-20T01:06:15;100147.00;;;6.70
22828;BMP180;11580;52.562;13.418;2022-11-20T01:08:45;100145.00;;;6.70
22828;BMP180;11580;52.562;13.418;2022-11-20T01:11:15;100141.00;;;6.70
22828;BMP180;11580;52.562;13.418;2022-11-20T01:13:44;100137.00;;;6.70
22828;BMP180;11580;52.562;13.418;2022-11-20T01:16:14;100134.00;;;6.70
22828;BMP180;11580;52.562;13.418;2022-11-20T01:18:44;100133.00;;;6.70
22828;BMP180;11580;52.562;13.418;2022-11-20T01:21:14;100134.00;;;6.70
22828;BMP180;11580;52.562;13.418;2022-11-20T01:23:44;100113.00;;;6.70
22828;BMP180;11580;52.562;13.418;2022-11-20T01:26:14;100135.00;;;6.70
22828;BMP180;11580;52.562;13.418;2022-11-20T01:28:43;100132.00;;;6.80
22828;BMP180;11580;52.562;13.418;2022-11-20T01:31:16;100131.00;;;6.80
22828;BMP180;11580;52.562;13.418;2022-11-20T01:33:45;100129.00;;;6.80
22828;BMP180;11580;52.562;13.418;2022-11-20T01:36:14;100125.00;;;6.80
22828;BMP180;11580;52.562;13.418;2022-11-20T01:38:44;100124.00;;;6.80
22828;BMP180;11580;52.562;13.418;2022-11-20T01:41:14;100124.00;;;6.90
22828;BMP180;11580;52.562;13.418;2022-11-20T01:44:04;100122.00;;;6.90
22828;BMP180;11580;52.562;13.418;2022-11-20T01:46:32;100107.00;;;6.90
22828;BMP180;11580;52.562;13.418;2022-11-20T01:49:04;100126.00;;;6.90
22828;BMP180;11580;52.562;13.418;2022-11-20T01:51:42;100124.00;;;6.90
22828;BMP180;11580;52.562;13.418;2022-11-20T01:54:17;100125.00;;;6.90
22828;BMP180;11580;52.562;13.418;2022-11-20T01:56:48;100120.00;;;6.90
22828;BMP180;11580;52.562;13.418;2022-11-20T01:59:19;100120.00;;;6.90
22828;BMP180;11580;52.562;13.418;2022-11-20T02:01:47;100117.00;;;7.00
22828;BMP180;11580;52.562;13.418;2022-11-20T02:04:16;100128.00;;;7.00
22828;BMP180;11580;52.562;13.418;2022-11-20T02:06:50;100120.00;;;7.00
22828;BMP180;11580;52.562;13.418;2022-11-20T02:09:20;100109.00;;;7.00
22828;BMP180;11580;52.562;13.418;2022-11-20T02:11:47;100113.00;;;7.00
22828;BMP180;11580;52.562;13.418;2022-11-20T02:14:15;100112.00;;;7.00
22828;BMP180;11580;52.562;13.418;2022-11-20T02:16:47;100103.00;;;7.00
22828;BMP180;11580;52.562;13.418;2022-11-20T02:19:23;100103.00;;;7.00
22828;BMP180;11580;52.562;13.418;2022-11-20T02:22:00;100105.00;;;7.00
22828;BMP180;11580;52.562;13.418;2022-11-20T02:24:30;100106.00;;;7.00
22828;BMP180;11580;52.562;13.418;2022-11-20T02:27:03;100106.00;;;7.00
22828;BMP180;11580;52.562;13.418;2022-11-20T02:29:38;100105.00;;;7.00
22828;BMP180;11580;52.562;13.418;2022-11-20T02:32:16;100110.00;;;7.00
22828;BMP180;11580;52.562;13.418;2022-11-20T02:34:44;100109.00;;;7.00
22828;BMP180;11580;52.562;13.418;2022-11-20T02:37:11;100117.00;;;7.00
22828;BMP180;11580;52.562;13.418;2022-11-20T02:39:41;100111.00;;;7.00
22828;BMP180;11580;52.562;13.418;2022-11-20T02:42:09;100112.00;;;7.00
22828;BMP180;11580;52.562;13.418;2022-11-20T02:44:36;100087.00;;;7.00
22828;BMP180;11580;52.562;13.418;2022-11-20T02:47:03;100111.00;;;7.00
22828;BMP180;11580;52.562;13.418;2022-11-20T02:49:30;100106.00;;;7.10
22828;BMP180;11580;52.562;13.418;2022-11-20T02:51:58;100107.00;;;7.00
22828;BMP180;11580;52.562;13.418;2022-11-20T02:54:26;100089.00;;;7.00
22828;BMP180;11580;52.562;13.418;2022-11-20T02:56:54;100109.00;;;7.10
22828;BMP180;11580;52.562;13.418;2022-11-20T02:59:22;100104.00;;;7.10
22828;BMP180;11580;52.562;13.418;2022-11-20T03:01:49;100104.00;;;7.10
22828;BMP180;11580;52.562;13.418;2022-11-20T03:04:16;100095.00;;;7.10
22828;BMP180;11580;52.562;13.418;2022-11-20T03:06:44;100101.00;;;7.10
22828;BMP180;11580;52.562;13.418;2022-11-20T03:09:12;100090.00;;;7.10
22828;BMP180;11580;52.562;13.418;2022-11-20T03:11:39;100093.00;;;7.10
22828;BMP180;11580;52.562;13.418;2022-11-20T03:14:07;100091.00;;;7.10
22828;BMP180;11580;52.562;13.418;2022-11-20T03:16:35;100089.00;;;7.00
22828;BMP180;11580;52.562;13.418;2022-11-20T03:19:02;100091.00;;;7.10
22828;BMP180;11580;52.562;13.418;2022-11-20T03:21:29;100093.00;;;7.00
22828;BMP180;11580;52.562;13.418;2022-11-20T03:23:56;100082.00;;;7.00
22828;BMP180;11580;52.562;13.418;2022-11-20T03:26:26;100086.00;;;6.90
22828;BMP180;11580;52.562;13.418;2022-11-20T03:28:56;100081.00;;;7.00
22828;BMP180;11580;52.562;13.418;2022-11-20T03:31:28;100082.00;;;7.00
22828;BMP180;11580;52.562;13.418;2022-11-20T03:33:56;100088.00;;;7.00
22828;BMP180;11580;52.562;13.418;2022-11-20T03:36:25;100082.00;;;7.00
22828;BMP180;11580;52.562;13.418;2022-11-20T03:38:54;100074.00;;;7.00
22828;BMP180;11580;52.562;13.418;2022-11-20T03:41:23;100079.00;;;7.10
22828;BMP180;11580;52.562;13.418;2022-11-20T03:43:53;100079.00;;;7.10
22828;BMP180;11580;52.562;13.418;2022-11-20T03:46:21;100077.00;;;7.10
22828;BMP180;11580;52.562;13.418;2022-11-20T03:48:50;100079.00;;;7.10
22828;BMP180;11580;52.562;13.418;2022-11-20T03:51:20;100073.00;;;7.10
22828;BMP180;11580;52.562;13.418;2022-11-20T03:53:49;100064.00;;;7.10
22828;BMP180;11580;52.562;13.418;2022-11-20T03:56:20;100063.00;;;7.10
22828;BMP180;11580;52.562;13.418;2022-11-20T03:58:47;100061.00;;;7.10
22828;BMP180;11580;52.562;13.418;2022-11-20T04:01:17;100047.00;;;7.10
22828;BMP180;11580;52.562;13.418;2022-11-20T04:03:45;100066.00;;;7.10
22828;BMP180;11580;52.562;13.418;2022-11-20T04:06:16;100063.00;;;7.10
22828;BMP180;11580;52.562;13.418;2022-11-20T04:08:45;100068.00;;;7.10
22828;BMP180;11580;52.562;13.418;2022-11-20T04:11:14;100064.00;;;7.10
22828;BMP180;11580;52.562;13.418;2022-11-20T04:13:46;100065.00;;;7.10
22828;BMP180;11580;52.562;13.418;2022-11-20T04:16:14;100055.00;;;7.10
22828;BMP180;11580;52.562;13.418;2022-11-20T04:18:41;100064.00;;;7.00
22828;BMP180;11580;52.562;13.418;2022-11-20T04:21:09;100065.00;;;7.00
22828;BMP180;11580;52.562;13.418;2022-11-20T04:23:38;100069.00;;;7.00
22828;BMP180;11580;52.562;13.418;2022-11-20T04:26:08;100067.00;;;7.00
22828;BMP180;11580;52.562;13.418;2022-11-20T04:28:36;100080.00;;;7.00
22828;BMP180;11580;52.562;13.418;2022-11-20T04:31:06;100065.00;;;7.00
22828;BMP180;11580;52.562;13.418;2022-11-20T04:33:34;100065.00;;;7.00
22828;BMP180;11580;52.562;13.418;2022-11-20T04:36:04;100073.00;;;7.00
22828;BMP180;11580;52.562;13.418;2022-11-20T04:38:32;100075.00;;;7.00
22828;BMP180;11580;52.562;13.418;2022-11-20T04:41:02;100063.00;;;7.00
22828;BMP180;11580;52.562;13.418;2022-11-20T04:43:31;100064.00;;;7.00
22828;BMP180;11580;52.562;13.418;2022-11-20T04:46:00;100062.00;;;7.00
22828;BMP180;11580;52.562;13.418;2022-11-20T04:48:28;100056.00;;;7.00
22828;BMP180;11580;52.562;13.418;2022-11-20T04:50:56;100060.00;;;7.00
22828;BMP180;11580;52.562;13.418;2022-11-20T04:53:24;100055.00;;;7.00
22828;BMP180;11580;52.562;13.418;2022-11-20T04:55:51;100050.00;;;7.00
22828;BMP180;11580;52.562;13.418;2022-11-20T04:58:19;100052.00;;;6.90
22828;BMP180;11580;52.562;13.418;2022-11-20T05:00:47;100055.00;;;6.90
22828;BMP180;11580;52.562;13.418;2022-11-20T05:03:14;100051.00;;;6.90
22828;BMP180;11580;52.562;13.418;2022-11-20T05:05:41;100051.00;;;6.90
22828;BMP180;11580;52.562;13.418;2022-11-20T05:08:08;100051.00;;;6.90
22828;BMP180;11580;52.562;13.418;2022-11-20T05:10:35;100035.00;;;6.90
22828;BMP180;11580;52.562;13.418;2022-11-20T05:13:02;100035.00;;;6.90
22828;BMP180;11580;52.562;13.418;2022-11-20T05:15:32;100038.00;;;6.90
22828;BMP180;11580;52.562;13.418;2022-11-20T05:17:59;100034.00;;;6.90
22828;BMP180;11580;52.562;13.418;2022-11-20T05:20:26;100038.00;;;6.90
22828;BMP180;11580;52.562;13.418;2022-11-20T05:22:56;100023.00;;;6.90
22828;BMP180;11580;52.562;13.418;2022-11-20T05:25:24;100026.00;;;6.90
22828;BMP180;11580;52.562;13.418;2022-11-20T05:27:51;100025.00;;;6.70
22828;BMP180;11580;52.562;13.418;2022-11-20T05:30:18;100022.00;;;6.80
22828;BMP180;11580;52.562;13.418;2022-11-20T05:32:47;100024.00;;;6.90
22828;BMP180;11580;52.562;13.418;2022-11-20T05:35:14;100025.00;;;6.80
22828;BMP180;11580;52.562;13.418;2022-11-20T05:37:41;100021.00;;;6.80
22828;BMP180;11580;52.562;13.418;2022-11-20T05:40:10;100023.00;;;6.80
22828;BMP180;11580;52.562;13.418;2022-11-20T05:42:38;100021.00;;;6.80
22828;BMP180;11580;52.562;13.418;2022-11-20T05:45:06;100026.00;;;6.80
22828;BMP180;11580;52.562;13.418;2022-11-20T05:47:34;100038.00;;;6.80
22828;BMP180;11580;52.562;13.418;2022-11-20T05:50:03;100019.00;;;6.80
22828;BMP180;11580;52.562;13.418;2022-11-20T05:52:31;100009.00;;;6.80
22828;BMP180;11580;52.562;13.418;2022-11-20T05:54:58;100017.00;;;6.80
22828;BMP180;11580;52.562;13.418;2022-11-20T05:57:25;100010.00;;;6.80
22828;BMP180;11580;52.562;13.418;2022-11-20T05:59:52;100010.00;;;6.80
22828;BMP180;11580;52.562;13.418;2022-11-20T06:02:19;100015.00;;;6.80
22828;BMP180;11580;52.562;13.418;2022-11-20T06:04:46;100010.00;;;6.70
22828;BMP180;11580;52.562;13.418;2022-11-20T06:07:15;100008.00;;;6.70
22828;BMP180;11580;52.562;13.418;2022-11-20T06:09:43;100003.00;;;6.70
22828;BMP180;11580;52.562;13.418;2022-11-20T06:12:10;100015.00;;;6.70
22828;BMP180;11580;52.562;13.418;2022-11-20T06:14:37;100000.00;;;6.70
22828;BMP180;11580;52.562;13.418;2022-11-20T06:17:04;100012.00;;;6.70
22828;BMP180;11580;52.562;13.418;2022-11-20T06:19:31;100006.00;;;6.70
22828;BMP180;11580;52.562;13.418;2022-11-20T06:21:58;100006.00;;;6.70
22828;BMP180;11580;52.562;13.418;2022-11-20T06:24:27;100005.00;;;6.70
22828;BMP180;11580;52.562;13.418;2022-11-20T06:26:54;100005.00;;;6.70
22828;BMP180;11580;52.562;13.418;2022-11-20T06:29:21;100000.00;;;6.80
22828;BMP180;11580;52.562;13.418;2022-11-20T06:31:48;100003.00;;;6.80
22828;BMP180;11580;52.562;13.418;2022-11-20T06:34:16;100002.00;;;6.80
22828;BMP180;11580;52.562;13.418;2022-11-20T06:36:43;100002.00;;;6.80
22828;BMP180;11580;52.562;13.418;2022-11-20T06:39:10;100013.00;;;6.80
22828;BMP180;11580;52.562;13.418;2022-11-20T06:41:39;100003.00;;;6.80
22828;BMP180;11580;52.562;13.418;2022-11-20T06:44:06;100006.00;;;6.80
22828;BMP180;11580;52.562;13.418;2022-11-20T06:46:33;100008.00;;;6.80
22828;BMP180;11580;52.562;13.418;2022-11-20T06:49:00;100004.00;;;6.80
22828;BMP180;11580;52.562;13.418;2022-11-20T06:51:28;100011.00;;;6.90
22828;BMP180;11580;52.562;13.418;2022-11-20T06:53:55;100001.00;;;6.90
22828;BMP180;11580;52.562;13.418;2022-11-20T06:56:22;100006.00;;;6.90
22828;BMP180;11580;52.562;13.418;2022-11-20T06:58:51;100002.00;;;6.90
22828;BMP180;11580;52.562;13.418;2022-11-20T07:01:18;99973.00;;;7.00
22828;BMP180;11580;52.562;13.418;2022-11-20T07:03:48;100007.00;;;7.00
22828;BMP180;11580;52.562;13.418;2022-11-20T07:06:15;100005.00;;;7.00
22828;BMP180;11580;52.562;13.418;2022-11-20T07:08:42;100000.00;;;7.10
22828;BMP180;11580;52.562;13.418;2022-11-20T07:11:12;99997.00;;;7.10
22828;BMP180;11580;52.562;13.418;2022-11-20T07:13:39;100008.00;;;7.10
22828;BMP180;11580;52.562;13.418;2022-11-20T07:16:08;100006.00;;;7.20
22828;BMP180;11580;52.562;13.418;2022-11-20T07:18:36;100007.00;;;7.20
22828;BMP180;11580;52.562;13.418;2022-11-20T07:21:06;100011.00;;;7.20
22828;BMP180;11580;52.562;13.418;2022-11-20T07:23:34;100012.00;;;7.30
22828;BMP180;11580;52.562;13.418;2022-11-20T07:26:04;100009.00;;;7.30
22828;BMP180;11580;52.562;13.418;2022-11-20T07:28:31;100014.00;;;7.30
22828;BMP180;11580;52.562;13.418;2022-11-20T07:30:59;100014.00;;;7.40
22828;BMP180;11580;52.562;13.418;2022-11-20T07:33:27;100014.00;;;7.40
22828;BMP180;11580;52.562;13.418;2022-11-20T07:35:54;100014.00;;;7.40
22828;BMP180;11580;52.562;13.418;2022-11-20T07:38:22;100004.00;;;7.40
22828;BMP180;11580;52.562;13.418;2022-11-20T07:40:53;100004.00;;;7.40
22828;BMP180;11580;52.562;13.418;2022-11-20T07:43:20;100001.00;;;7.40
22828;BMP180;11580;52.562;13.418;2022-11-20T07:45:47;99998.00;;;7.50
22828;BMP180;11580;52.562;13.418;2022-11-20T07:48:15;99998.00;;;7.50
22828;BMP180;11580;52.562;13.418;2022-11-20T07:50:43;99990.00;;;7.50
22828;BMP180;11580;52.562;13.418;2022-11-20T07:53:10;99992.00;;;7.60
22828;BMP180;11580;52.562;13.418;2022-11-20T07:55:38;99993.00;;;7.60
22828;BMP180;11580;52.562;13.418;2022-11-20T07:58:05;99998.00;;;7.60
22828;BMP180;11580;52.562;13.418;2022-11-20T08:00:33;99996.00;;;7.70
22828;BMP180;11580;52.562;13.418;2022-11-20T08:03:03;99994.00;;;7.70
22828;BMP180;11580;52.562;13.418;2022-11-20T08:05:30;99997.00;;;7.80
22828;BMP180;11580;52.562;13.418;2022-11-20T08:07:59;99997.00;;;7.80
22828;BMP180;11580;52.562;13.418;2022-11-20T08:10:26;99994.00;;;7.90
22828;BMP180;11580;52.562;13.418;2022-11-20T08:12:53;99994.00;;;7.90
22828;BMP180;11580;52.562;13.418;2022-11-20T08:15:39;99984.00;;;7.90
22828;BMP180;11580;52.562;13.418;2022-11-20T08:18:09;99992.00;;;7.90
22828;BMP180;11580;52.562;13.418;2022-11-20T08:20:38;99988.00;;;8.00
22828;BMP180;11580;52.562;13.418;2022-11-20T08:23:07;99988.00;;;8.00
22828;BMP180;11580;52.562;13.418;2022-11-20T08:25:36;99988.00;;;8.10
22828;BMP180;11580;52.562;13.418;2022-11-20T08:28:06;99959.00;;;8.10
22828;BMP180;11580;52.562;13.418;2022-11-20T08:30:34;99981.00;;;8.10
22828;BMP180;11580;52.562;13.418;2022-11-20T08:33:03;99960.00;;;8.20
22828;BMP180;11580;52.562;13.418;2022-11-20T08:35:33;99978.00;;;8.20
22828;BMP180;11580;52.562;13.418;2022-11-20T08:38:01;99975.00;;;8.20
22828;BMP180;11580;52.562;13.418;2022-11-20T08:40:31;99978.00;;;8.20
22828;BMP180;11580;52.562;13.418;2022-11-20T08:42:58;99979.00;;;8.20
22828;BMP180;11580;52.562;13.418;2022-11-20T08:45:25;99984.00;;;8.20
22828;BMP180;11580;52.562;13.418;2022-11-20T08:47:53;99980.00;;;8.20
22828;BMP180;11580;52.562;13.418;2022-11-20T08:50:20;99992.00;;;8.30
22828;BMP180;11580;52.562;13.418;2022-11-20T08:52:47;99985.00;;;8.30
22828;BMP180;11580;52.562;13.418;2022-11-20T08:55:14;99992.00;;;8.40
22828;BMP180;11580;52.562;13.418;2022-11-20T08:57:43;99979.00;;;8.40
22828;BMP180;11580;52.562;13.418;2022-11-20T09:00:11;99994.00;;;8.40
22828;BMP180;11580;52.562;13.418;2022-11-20T09:02:39;99993.00;;;8.50
22828;BMP180;11580;52.562;13.418;2022-11-20T09:05:06;99992.00;;;8.40
22828;BMP180;11580;52.562;13.418;2022-11-20T09:07:34;99995.00;;;8.30
22828;BMP180;11580;52.562;13.418;2022-11-20T09:10:01;99994.00;;;8.40
22828;BMP180;11580;52.562;13.418;2022-11-20T09:12:28;99991.00;;;8.40
22828;BMP180;11580;52.562;13.418;2022-11-20T09:14:57;99990.00;;;8.40
22828;BMP180;11580;52.562;13.418;2022-11-20T09:17:24;99987.00;;;8.40
22828;BMP180;11580;52.562;13.418;2022-11-20T09:19:51;99988.00;;;8.40
22828;BMP180;11580;52.562;13.418;2022-11-20T09:22:18;99994.00;;;8.50
22828;BMP180;11580;52.562;13.418;2022-11-20T09:24:46;99994.00;;;8.50
22828;BMP180;11580;52.562;13.418;2022-11-20T09:27:13;100003.00;;;8.50
22828;BMP180;11580;52.562;13.418;2022-11-20T09:29:40;100006.00;;;8.60
22828;BMP180;11580;52.562;13.418;2022-11-20T09:32:08;99998.00;;;8.60
22828;BMP180;11580;52.562;13.418;2022-11-20T09:34:36;99991.00;;;8.70
22828;BMP180;11580;52.562;13.418;2022-11-20T09:37:03;99992.00;;;8.70
22828;BMP180;11580;52.562;13.418;2022-11-20T09:39:30;99991.00;;;8.70
22828;BMP180;11580;52.562;13.418;2022-11-20T09:42:17;99990.00;;;8.80
22828;BMP180;11580;52.562;13.418;2022-11-20T09:45:05;99985.00;;;8.80
22828;BMP180;11580;52.562;13.418;2022-11-20T09:47:58;99988.00;;;8.90
22828;BMP180;11580;52.562;13.418;2022-11-20T09:50:32;99992.00;;;8.90
22828;BMP180;11580;52.562;13.418;2022-11-20T09:53:15;99989.00;;;9.00
22828;BMP180;11580;52.562;13.418;2022-11-20T09:55:46;99984.00;;;9.10
22828;BMP180;11580;52.562;13.418;2022-11-20T09:58:24;99987.00;;;9.10
22828;BMP180;11580;52.562;13.418;2022-11-20T10:00:53;99980.00;;;9.20
22828;BMP180;11580;52.562;13.418;2022-11-20T10:03:37;99982.00;;;9.30
22828;BMP180;11580;52.562;13.418;2022-11-20T10:06:13;99982.00;;;9.40
22828;BMP180;11580;52.562;13.418;2022-11-20T10:08:50;99982.00;;;9.30
22828;BMP180;11580;52.562;13.418;2022-11-20T10:11:31;99983.00;;;9.50
22828;BMP180;11580;52.562;13.418;2022-11-20T10:14:17;99981.00;;;9.60
22828;BMP180;11580;52.562;13.418;2022-11-20T10:17:00;99974.00;;;9.60
22828;BMP180;11580;52.562;13.418;2022-11-20T10:19:54;99986.00;;;9.70
22828;BMP180;11580;52.562;13.418;2022-11-20T10:22:47;99970.00;;;9.70
22828;BMP180;11580;52.562;13.418;2022-11-20T10:25:20;99970.00;;;9.70
22828;BMP180;11580;52.562;13.418;2022-11-20T10:28:22;99958.00;;;9.70
22828;BMP180;11580;52.562;13.418;2022-11-20T10:31:00;99960.00;;;9.70
22828;BMP180;11580;52.562;13.418;2022-11-20T10:33:34;99953.00;;;9.70
22828;BMP180;11580;52.562;13.418;2022-11-20T10:36:15;99955.00;;;9.70
22828;BMP180;11580;52.562;13.418;2022-11-20T10:38:48;99951.00;;;9.70
22828;BMP180;11580;52.562;13.418;2022-11-20T10:41:25;99945.00;;;9.70
22828;BMP180;11580;52.562;13.418;2022-11-20T10:44:02;99942.00;;;9.70
22828;BMP180;11580;52.562;13.418;2022-11-20T10:46:39;99950.00;;;9.70
22828;BMP180;11580;52.562;13.418;2022-11-20T10:49:14;99946.00;;;9.70
22828;BMP180;11580;52.562;13.418;2022-11-20T10:52:00;99945.00;;;9.70
22828;BMP180;11580;52.562;13.418;2022-11-20T10:54:39;99946.00;;;9.70
22828;BMP180;11580;52.562;13.418;2022-11-20T10:57:20;99941.00;;;9.70
22828;BMP180;11580;52.562;13.418;2022-11-20T11:00:05;99947.00;;;9.80
22828;BMP180;11580;52.562;13.418;2022-11-20T11:02:39;99947.00;;;9.90
22828;BMP180;11580;52.562;13.418;2022-11-20T11:05:21;99947.00;;;9.90
22828;BMP180;11580;52.562;13.418;2022-11-20T11:07:54;99937.00;;;10.00
22828;BMP180;11580;52.562;13.418;2022-11-20T11:10:34;99955.00;;;10.10
22828;BMP180;11580;52.562;13.418;2022-11-20T11:13:03;99953.00;;;10.10
22828;BMP180;11580;52.562;13.418;2022-11-20T11:15:38;99947.00;;;10.10
22828;BMP180;11580;52.562;13.418;2022-11-20T11:18:09;99955.00;;;10.20
22828;BMP180;11580;52.562;13.418;2022-11-20T11:20:38;99949.00;;;10.10
22828;BMP180;11580;52.562;13.418;2022-11-20T11:23:30;99949.00;;;10.20
22828;BMP180;11580;52.562;13.418;2022-11-20T11:26:00;99944.00;;;10.10
22828;BMP180;11580;52.562;13.418;2022-11-20T11:28:28;99942.00;;;10.10
22828;BMP180;11580;52.562;13.418;2022-11-20T11:30:55;99946.00;;;10.10
22828;BMP180;11580;52.562;13.418;2022-11-20T11:33:24;99940.00;;;10.10
22828;BMP180;11580;52.562;13.418;2022-11-20T11:35:54;99926.00;;;10.00
22828;BMP180;11580;52.562;13.418;2022-11-20T11:38:30;99924.00;;;10.00
22828;BMP180;11580;52.562;13.418;2022-11-20T11:41:02;99919.00;;;10.00
22828;BMP180;11580;52.562;13.418;2022-11-20T11:43:34;99930.00;;;10.00
22828;BMP180;11580;52.562;13.418;2022-11-20T11:46:29;99909.00;;;10.00
22828;BMP180;11580;52.562;13.418;2022-11-20T11:49:00;99923.00;;;9.90
22828;BMP180;11580;52.562;13.418;2022-11-20T11:51:36;99935.00;;;9.90
22828;BMP180;11580;52.562;13.418;2022-11-20T11:54:15;99923.00;;;9.90
22828;BMP180;11580;52.562;13.418;2022-11-20T11:56:44;99922.00;;;9.80
22828;BMP180;11580;52.562;13.418;2022-11-20T11:59:18;99921.00;;;9.70
22828;BMP180;11580;52.562;13.418;2022-11-20T12:01:56;99921.00;;;9.60
22828;BMP180;11580;52.562;13.418;2022-11-20T12:04:42;99911.00;;;9.40
22828;BMP180;11580;52.562;13.418;2022-11-20T12:07:18;99928.00;;;9.30
22828;BMP180;11580;52.562;13.418;2022-11-20T12:09:54;99913.00;;;9.20
22828;BMP180;11580;52.562;13.418;2022-11-20T12:12:30;99914.00;;;9.10
22828;BMP180;11580;52.562;13.418;2022-11-20T12:14:58;99910.00;;;9.00
22828;BMP180;11580;52.562;13.418;2022-11-20T12:17:25;99901.00;;;8.90
22828;BMP180;11580;52.562;13.418;2022-11-20T12:19:53;99913.00;;;8.80
22828;BMP180;11580;52.562;13.418;2022-11-20T12:22:45;99906.00;;;8.80
22828;BMP180;11580;52.562;13.418;2022-11-20T12:25:23;99900.00;;;8.60
22828;BMP180;11580;52.562;13.418;2022-11-20T12:28:29;99872.00;;;8.50
22828;BMP180;11580;52.562;13.418;2022-11-20T12:31:36;99892.00;;;8.40
22828;BMP180;11580;52.562;13.418;2022-11-20T12:34:39;99888.00;;;8.40
22828;BMP180;11580;52.562;13.418;2022-11-20T12:37:26;99890.00;;;8.30
22828;BMP180;11580;52.562;13.418;2022-11-20T12:40:02;99885.00;;;8.30
22828;BMP180;11580;52.562;13.418;2022-11-20T12:42:56;99875.00;;;8.30
22828;BMP180;11580;52.562;13.418;2022-11-20T12:46:09;99877.00;;;8.30
22828;BMP180;11580;52.562;13.418;2022-11-20T12:49:07;99884.00;;;8.30
22828;BMP180;11580;52.562;13.418;2022-11-20T12:52:09;99876.00;;;8.30
22828;BMP180;11580;52.562;13.418;2022-11-20T12:55:07;99878.00;;;8.30
22828;BMP180;11580;52.562;13.418;2022-11-20T12:57:47;99875.00;;;8.30
22828;BMP180;11580;52.562;13.418;2022-11-20T13:00:20;99874.00;;;8.40
22828;BMP180;11580;52.562;13.418;2022-11-20T13:03:29;99870.00;;;8.40
22828;BMP180;11580;52.562;13.418;2022-11-20T13:06:08;99877.00;;;8.40
22828;BMP180;11580;52.562;13.418;2022-11-20T13:08:41;99866.00;;;8.50
22828;BMP180;11580;52.562;13.418;2022-11-20T13:11:18;99849.00;;;8.50
22828;BMP180;11580;52.562;13.418;2022-11-20T13:14:14;99861.00;;;8.60
22828;BMP180;11580;52.562;13.418;2022-11-20T13:16:53;99853.00;;;8.70
22828;BMP180;11580;52.562;13.418;2022-11-20T13:19:21;99865.00;;;8.70
22828;BMP180;11580;52.562;13.418;2022-11-20T13:21:49;99858.00;;;8.80
22828;BMP180;11580;52.562;13.418;2022-11-20T13:24:27;99857.00;;;8.90
22828;BMP180;11580;52.562;13.418;2022-11-20T13:27:05;99862.00;;;8.90
22828;BMP180;11580;52.562;13.418;2022-11-20T13:29:36;99858.00;;;9.00
22828;BMP180;11580;52.562;13.418;2022-11-20T13:32:12;99855.00;;;9.00
22828;BMP180;11580;52.562;13.418;2022-11-20T13:34:51;99860.00;;;8.90
22828;BMP180;11580;52.562;13.418;2022-11-20T13:37:28;99858.00;;;8.90
22828;BMP180;11580;52.562;13.418;2022-11-20T13:40:12;99855.00;;;8.90
22828;BMP180;11580;52.562;13.418;2022-11-20T13:42:45;99854.00;;;8.80
22828;BMP180;11580;52.562;13.418;2022-11-20T13:45:25;99854.00;;;8.80
22828;BMP180;11580;52.562;13.418;2022-11-20T13:47:54;99857.00;;;8.70
22828;BMP180;11580;52.562;13.418;2022-11-20T13:50:40;99849.00;;;8.70
22828;BMP180;11580;52.562;13.418;2022-11-20T13:53:32;99854.00;;;8.60
22828;BMP180;11580;52.562;13.418;2022-11-20T13:56:08;99859.00;;;8.60
22828;BMP180;11580;52.562;13.418;2022-11-20T13:58:51;99861.00;;;8.50
22828;BMP180;11580;52.562;13.418;2022-11-20T14:01:26;99869.00;;;8.50
22828;BMP180;11580;52.562;13.418;2022-11-20T14:03:53;99853.00;;;8.40
22828;BMP180;11580;52.562;13.418;2022-11-20T14:06:27;99862.00;;;8.30
22828;BMP180;11580;52.562;13.418;2022-11-20T14:08:56;99841.00;;;8.30
22828;BMP180;11580;52.562;13.418;2022-11-20T14:11:25;99840.00;;;8.20
22828;BMP180;11580;52.562;13.418;2022-11-20T14:13:58;99856.00;;;8.20
22828;BMP180;11580;52.562;13.418;2022-11-20T14:16:30;99869.00;;;8.10
22828;BMP180;11580;52.562;13.418;2022-11-20T14:19:29;99857.00;;;8.00
22828;BMP180;11580;52.562;13.418;2022-11-20T14:22:19;99864.00;;;7.90
22828;BMP180;11580;52.562;13.418;2022-11-20T14:24:46;99865.00;;;7.80
22828;BMP180;11580;52.562;13.418;2022-11-20T14:27:16;99859.00;;;7.80
22828;BMP180;11580;52.562;13.418;2022-11-20T14:29:47;99859.00;;;7.70